Home > Products > Valid Products > TAF

000
FTUS43 KSGF 262300
TAFSGF
TAF
KSGF 262320Z 2700/2724 34010KT P6SM SCT250
     FM270100 01009KT P6SM SCT250
     FM271700 05007KT P6SM OVC100=



000
FTUS43 KSGF 262300
TAFSGF
TAF
KSGF 262320Z 2700/2724 34010KT P6SM SCT250
     FM270100 01009KT P6SM SCT250
     FM271700 05007KT P6SM OVC100=



000
FTUS43 KSGF 262300
TAFJLN
TAF
KJLN 262320Z 2700/2724 35010G15KT P6SM SCT250
     FM270100 01009KT P6SM SCT250
     FM270600 03007KT P6SM BKN250
     FM271300 06007KT P6SM OVC100=



000
FTUS43 KSGF 261700
TAFSGF
TAF
KSGF 261720Z 2618/2718 35015G25KT P6SM SCT025
     FM270000 36009KT P6SM SCT250
     FM270900 05007KT P6SM SCT250=



000
FTUS43 KSGF 261700
TAFJLN
TAF
KJLN 261720Z 2618/2718 35015G23KT P6SM FEW025
     FM270000 36008KT P6SM SCT250
     FM270600 03007KT P6SM SCT250
     FM271600 06007KT P6SM SCT100 OVC250=



000
FTUS43 KSGF 261700
TAFSGF
TAF
KSGF 261720Z 2618/2718 35015G25KT P6SM SCT025
     FM270000 36009KT P6SM SCT250
     FM270900 05007KT P6SM SCT250=



000
FTUS43 KSGF 261500 AAA
TAFJLN
TAF AMD
KJLN 261559Z 2616/2712 35015G23KT P6SM FEW025
     FM270000 36008KT P6SM SCT250=



000
FTUS43 KSGF 261500 AAA
TAFSGF
TAF AMD
KSGF 261522Z 2615/2712 34017G26KT P6SM -SN OVC020
      TEMPO 2615/2616 4SM -SN
     FM261600 35015G25KT P6SM SCT025
     FM270000 36009KT P6SM SCT250=



000
FTUS43 KSGF 261100
TAFJLN
TAF
KJLN 261120Z 2612/2712 35018G24KT P6SM OVC025
     FM261500 35015G20KT P6SM OVC025
     FM261900 34013G18KT P6SM BKN050
     FM270000 36008KT P6SM SCT250=



000
FTUS43 KSGF 261100
TAFSGF
TAF
KSGF 261120Z 2612/2712 34020G26KT P6SM OVC015
      TEMPO 2612/2615 5SM -SN
     FM261500 35016G22KT P6SM OVC025
     FM262000 35012G18KT P6SM BKN050
     FM270000 36009KT P6SM SCT250=



000
FTUS43 KSGF 261100
TAFSGF
TAF
KSGF 261120Z 2612/2712 34020G26KT P6SM OVC015
      TEMPO 2612/2615 5SM -SN
     FM261500 35016G22KT P6SM OVC025
     FM262000 35012G18KT P6SM BKN050
     FM270000 36009KT P6SM SCT250=



000
FTUS43 KSGF 261100
TAFJLN
TAF
KJLN 261120Z 2612/2712 35018G24KT P6SM OVC025
     FM261500 35015G20KT P6SM OVC025
     FM261900 34013G18KT P6SM BKN050
     FM270000 36008KT P6SM SCT250=



000
FTUS43 KSGF 260800 AAA
TAFSGF
TAF AMD
KSGF 260812Z 2608/2706 35017G26KT P6SM OVC010
      TEMPO 2609/2613 3SM -SN BR
     FM261300 35017G27KT P6SM SCT008 OVC015
     FM262000 35012G18KT P6SM BKN020
     FM270100 36010KT P6SM SCT025=



000
FTUS43 KSGF 260800 AAA
TAFSGF
TAF AMD
KSGF 260812Z 2608/2706 35017G26KT P6SM OVC010
      TEMPO 2609/2613 3SM -SN BR
     FM261300 35017G27KT P6SM SCT008 OVC015
     FM262000 35012G18KT P6SM BKN020
     FM270100 36010KT P6SM SCT025=



000
FTUS43 KSGF 260800 AAA
TAFJLN
TAF AMD
KJLN 260811Z 2608/2706 35018G26KT P6SM OVC020
     FM261700 35014G24KT P6SM BKN025
     FM262000 34013G20KT P6SM SCT025
     FM270000 36010KT P6SM SKC=



000
FTUS43 KSGF 260800 AAA
TAFJLN
TAF AMD
KJLN 260811Z 2608/2706 35018G26KT P6SM OVC020
     FM261700 35014G24KT P6SM BKN025
     FM262000 34013G20KT P6SM SCT025
     FM270000 36010KT P6SM SKC=



000
FTUS43 KSGF 260600 AAA
TAFSGF
TAF AMD
KSGF 260657Z 2607/2706 35017G26KT P6SM OVC008
      TEMPO 2609/2613 3SM -SN BR
     FM261300 35017G27KT P6SM SCT008 OVC015
     FM262000 35012G18KT P6SM BKN020
     FM270100 36010KT P6SM SCT025=



000
FTUS43 KSGF 260600 AAA
TAFSGF
TAF AMD
KSGF 260657Z 2607/2706 35017G26KT P6SM OVC008
      TEMPO 2609/2613 3SM -SN BR
     FM261300 35017G27KT P6SM SCT008 OVC015
     FM262000 35012G18KT P6SM BKN020
     FM270100 36010KT P6SM SCT025=



000
FTUS43 KSGF 260500
TAFSGF
TAF
KSGF 260530Z 2606/2706 32012KT P6SM OVC050
     FM260700 34017G26KT P6SM OVC010
      TEMPO 2609/2613 3SM -SN BR
     FM261300 35017G27KT P6SM OVC015
     FM262000 35012G18KT P6SM BKN020
     FM270100 36010KT P6SM SCT025=



000
FTUS43 KSGF 260500
TAFJLN
TAF
KJLN 260530Z 2606/2706 33018G26KT P6SM OVC015
      TEMPO 2608/2611 6SM -SN
     FM261700 35014G24KT P6SM BKN025
     FM262000 34013G20KT P6SM SCT025
     FM270000 36010KT P6SM SKC=



000
FTUS43 KSGF 252300 RRA
TAFJLN
TAF
KJLN 252337Z 2600/2624 26007KT P6SM BKN150
     FM260300 30010KT P6SM SCT050 OVC100
     FM260500 33013G23KT P6SM OVC012
      TEMPO 2605/2609 6SM -SN
     FM260900 33016G25KT P6SM OVC015
     FM261700 35014G24KT P6SM BKN025
     FM262200 34013G19KT P6SM SCT025=



000
FTUS43 KSGF 252300 RRA
TAFSGF
TAF
KSGF 252337Z 2600/2624 23004KT P6SM BKN150
     FM260300 27005KT P6SM SCT050 OVC100
     FM260600 32014G24KT P6SM SCT010 OVC040
     FM260900 34017G27KT P6SM OVC010
      TEMPO 2609/2613 3SM -SN BR
     FM261300 35017G27KT P6SM OVC015
     FM262000 35012G18KT P6SM BKN020=



000
FTUS43 KSGF 252300 RRA
TAFJLN
TAF
KJLN 252337Z 2600/2624 26007KT P6SM BKN150
     FM260300 30010KT P6SM SCT050 OVC100
     FM260500 33013G23KT P6SM OVC012
      TEMPO 2605/2609 6SM -SN
     FM260900 33016G25KT P6SM OVC015
     FM261700 35014G24KT P6SM BKN025
     FM262200 34013G19KT P6SM SCT025=



000
FTUS43 KSGF 252300 RRA
TAFSGF
TAF
KSGF 252337Z 2600/2624 23004KT P6SM BKN150
     FM260300 27005KT P6SM SCT050 OVC100
     FM260600 32014G24KT P6SM SCT010 OVC040
     FM260900 34017G27KT P6SM OVC010
      TEMPO 2609/2613 3SM -SN BR
     FM261300 35017G27KT P6SM OVC015
     FM262000 35012G18KT P6SM BKN020=



000
FTUS43 KSGF 251700
TAFSGF
TAF
KSGF 251720Z 2518/2618 18008KT P6SM BKN150
     FM260000 24007KT P6SM OVC050
     FM260600 33014G21KT P6SM OVC040 PROB30 2606/2612 5SM -SN SCT010
      OVC020
     FM261200 35015G22KT P6SM BKN030=



000
FTUS43 KSGF 251700
TAFJLN
TAF
KJLN 251720Z 2518/2618 21008KT P6SM BKN150
     FM260000 26007KT P6SM OVC050
     FM260500 33016G23KT P6SM OVC040 PROB30 2606/2612 5SM -SN SCT015
      OVC020
     FM261200 35017G24KT P6SM BKN030=



000
FTUS43 KSGF 251700
TAFSGF
TAF
KSGF 251720Z 2518/2618 18008KT P6SM BKN150
     FM260000 24007KT P6SM OVC050
     FM260600 33014G21KT P6SM OVC040 PROB30 2606/2612 5SM -SN SCT010
      OVC020
     FM261200 35015G22KT P6SM BKN030=



000
FTUS43 KSGF 251700
TAFJLN
TAF
KJLN 251720Z 2518/2618 21008KT P6SM BKN150
     FM260000 26007KT P6SM OVC050
     FM260500 33016G23KT P6SM OVC040 PROB30 2606/2612 5SM -SN SCT015
      OVC020
     FM261200 35017G24KT P6SM BKN030=



000
FTUS43 KSGF 251100
TAFJLN
TAF
KJLN 251120Z 2512/2612 21008KT P6SM SCT150
     FM260100 21005KT P6SM OVC080
     FM260500 33017G26KT P6SM OVC040 PROB30 2608/2612 5SM -SN SCT015
      OVC025=



000
FTUS43 KSGF 251100
TAFSGF
TAF
KSGF 251120Z 2512/2612 18008KT P6SM SCT150
     FM260100 17006KT P6SM OVC080
     FM260600 32015G22KT P6SM OVC040 PROB30 2608/2612 5SM -SN SCT010
      OVC015=



000
FTUS43 KSGF 250500
TAFSGF
TAF
KSGF 250520Z 2506/2606 VRB04KT P6SM SKC
     FM251400 16005KT P6SM SKC
     FM251700 20007KT P6SM SKC
     FM260100 16005KT P6SM OVC100=



000
FTUS43 KSGF 250500
TAFJLN
TAF
KJLN 250520Z 2506/2606 21008KT P6SM SKC
     FM250800 VRB04KT P6SM SKC
     FM251500 20008KT P6SM SKC
     FM260100 21005KT P6SM OVC100=



000
FTUS43 KSGF 242300
TAFSGF
TAF
KSGF 242320Z 2500/2524 26010KT P6SM SKC
     FM250500 VRB04KT P6SM SKC
      TEMPO 2510/2514 4SM BR
     FM251600 16006KT P6SM SKC=



000
FTUS43 KSGF 242300
TAFJLN
TAF
KJLN 242320Z 2500/2524 23010KT P6SM SKC
     FM250400 VRB03KT P6SM SKC
      TEMPO 2510/2514 5SM BR
     FM251600 17006KT P6SM SKC=



000
FTUS43 KSGF 241700
TAFSGF
TAF
KSGF 241721Z 2418/2518 25013KT P6SM SKC
     FM242300 25006KT P6SM SKC
     FM250600 VRB04KT 6SM BR SKC
      TEMPO 2510/2514 4SM BR
     FM251600 16006KT P6SM SCT015=



000
FTUS43 KSGF 241100
TAFSGF
TAF
KSGF 241120Z 2412/2512 23007KT P6SM OVC050
     FM241600 25012KT P6SM SKC
     FM250000 VRB04KT P6SM SKC=



000
FTUS43 KSGF 241100
TAFJLN
TAF
KJLN 241120Z 2412/2512 25007KT P6SM OVC050
     FM241600 25012KT P6SM SKC
     FM250000 VRB04KT P6SM SKC=



000
FTUS43 KSGF 240500
TAFJLN
TAF
KJLN 240520Z 2406/2506 21005KT P6SM OVC080
     FM241200 23012KT P6SM SKC
     FM250000 VRB04KT P6SM SKC=



000
FTUS43 KSGF 240500
TAFSGF
TAF
KSGF 240520Z 2406/2506 21005KT P6SM OVC080
     FM241300 24012KT P6SM SKC
     FM250000 23005KT P6SM SKC=



000
FTUS43 KSGF 240500
TAFJLN
TAF
KJLN 240520Z 2406/2506 21005KT P6SM OVC080
     FM241200 23012KT P6SM SKC
     FM250000 VRB04KT P6SM SKC=



000
FTUS43 KSGF 240500
TAFSGF
TAF
KSGF 240520Z 2406/2506 21005KT P6SM OVC080
     FM241300 24012KT P6SM SKC
     FM250000 23005KT P6SM SKC=



    US Dept of Commerce
    National Oceanic and Atmospheric Administration
    National Weather Service
    1325 East West Highway
    Silver Spring, MD 20910
    Page Author: NWS Internet Services Team
Disclaimer
Information Quality
Credits
Glossary
Privacy Policy
Freedom of Information Act (FOIA)
About Us
Career Opportunities